Time;durP1;ratioP1;P1;durP2;ratioP2;P2;SDS_P1;SDS_P2;PMS_P1;PMS_P2;Temp;Humidity;BMP_temperature;BMP_pressure;BME280_temperature;BME280_humidity;BME280_pressure;Samples;Min_cycle;Max_cycle;Signal;HPM_P1;HPM_P2
2021/06/04 00:00:27;;;;;;;4.38;3.10;;;20.40;42.80;;;;;;4993786;28;20050;-65
2021/06/04 00:02:54;;;;;;;4.50;2.45;;;20.40;43.10;;;;;;4993079;28;20026;-65
2021/06/04 00:05:24;;;;;;;3.03;2.38;;;20.40;42.90;;;;;;5003010;28;20018;-65
2021/06/04 00:07:50;;;;;;;7.95;2.88;;;20.30;43.30;;;;;;4997105;28;20030;-65
2021/06/04 00:10:27;;;;;;;7.05;2.50;;;20.30;43.30;;;;;;5008734;28;20034;-65
2021/06/04 00:12:53;;;;;;;3.47;2.63;;;20.30;43.70;;;;;;4995514;28;20030;-65
2021/06/04 00:15:26;;;;;;;3.95;2.50;;;20.30;43.20;;;;;;5013280;28;20018;-64
2021/06/04 00:17:51;;;;;;;4.60;2.38;;;20.20;43.40;;;;;;5013169;28;20029;-65
2021/06/04 00:20:26;;;;;;;3.65;2.35;;;20.20;43.80;;;;;;5010853;28;20018;-65
2021/06/04 00:22:53;;;;;;;5.40;2.90;;;20.10;43.90;;;;;;5013270;28;20474;-65
2021/06/04 00:25:20;;;;;;;3.80;3.00;;;20.10;44.00;;;;;;5013188;28;20427;-65
2021/06/04 00:27:46;;;;;;;3.78;2.40;;;20.10;44.40;;;;;;4995646;28;20492;-65
2021/06/04 00:30:14;;;;;;;4.43;2.65;;;20.00;44.20;;;;;;4993505;28;20109;-64
2021/06/04 00:32:40;;;;;;;3.17;2.60;;;20.00;44.50;;;;;;4993259;28;20018;-65
2021/06/04 00:35:10;;;;;;;11.40;2.60;;;20.00;44.30;;;;;;5010962;28;20026;-64
2021/06/04 00:37:36;;;;;;;3.58;2.55;;;19.90;44.80;;;;;;5000319;28;20022;-65
2021/06/04 00:40:23;;;;;;;6.50;2.42;;;19.90;44.50;;;;;;5012745;28;20026;-65
2021/06/04 00:42:50;;;;;;;4.38;2.30;;;19.80;44.40;;;;;;4995420;28;20448;-64
2021/06/04 00:45:29;;;;;;;3.55;2.58;;;19.90;44.50;;;;;;4993409;28;20026;-65
2021/06/04 00:47:55;;;;;;;5.43;2.70;;;19.80;44.70;;;;;;4991963;28;20042;-65
2021/06/04 00:50:39;;;;;;;5.22;2.80;;;19.80;44.80;;;;;;5012011;28;20026;-65
2021/06/04 00:53:06;;;;;;;3.22;2.38;;;19.70;44.90;;;;;;5016535;28;20049;-65
2021/06/04 00:55:33;;;;;;;4.15;3.30;;;19.70;44.90;;;;;;5006505;28;20058;-65
2021/06/04 00:58:00;;;;;;;19.80;13.00;;;19.60;44.80;;;;;;4996709;28;20030;-64
2021/06/04 01:00:38;;;;;;;5.78;4.13;;;19.60;45.10;;;;;;4997023;28;20029;-64
2021/06/04 01:03:06;;;;;;;4.47;2.83;;;19.60;45.50;;;;;;4995488;28;20480;-64
2021/06/04 01:05:36;;;;;;;5.50;2.55;;;19.50;45.50;;;;;;5000418;28;20030;-65
2021/06/04 01:08:07;;;;;;;4.63;2.72;;;19.50;45.60;;;;;;4997032;28;20037;-65
2021/06/04 01:11:04;;;;;;;3.95;2.53;;;19.50;45.60;;;;;;4999799;28;20033;-65
2021/06/04 01:13:54;;;;;;;5.72;2.83;;;19.40;45.70;;;;;;5014537;28;20038;-65
2021/06/04 01:16:40;;;;;;;3.55;2.03;;;19.40;46.00;;;;;;5016683;28;20037;-64
2021/06/04 01:19:41;;;;;;;5.95;2.60;;;19.40;46.00;;;;;;5009982;28;20014;-65
2021/06/04 01:22:13;;;;;;;4.18;2.60;;;19.30;46.00;;;;;;5000183;28;20022;-65
2021/06/04 01:25:00;;;;;;;3.45;2.58;;;19.30;45.90;;;;;;5009774;28;20065;-65
2021/06/04 01:27:36;;;;;;;4.82;2.60;;;19.20;46.20;;;;;;5013582;28;20117;-65
2021/06/04 01:30:21;;;;;;;2.42;2.22;;;19.20;46.30;;;;;;4996844;28;20427;-64
2021/06/04 01:32:48;;;;;;;3.60;2.42;;;19.20;46.00;;;;;;5011487;28;20030;-65
2021/06/04 01:35:20;;;;;;;2.97;2.42;;;19.10;46.40;;;;;;4996626;28;20387;-65
2021/06/04 01:37:46;;;;;;;2.67;2.33;;;19.10;46.40;;;;;;4997489;28;20018;-64
2021/06/04 01:40:42;;;;;;;4.63;2.30;;;19.10;47.10;;;;;;4996457;28;20022;-64
2021/06/04 01:43:31;;;;;;;4.35;2.60;;;19.10;47.20;;;;;;4996334;28;20038;-64
2021/06/04 01:46:02;;;;;;;2.67;2.33;;;19.00;47.10;;;;;;4996424;28;20053;-64
2021/06/04 01:48:33;;;;;;;2.80;2.47;;;19.00;47.00;;;;;;4996607;28;20391;-64
2021/06/04 01:51:09;;;;;;;3.90;3.15;;;19.00;47.20;;;;;;4996262;28;20023;-64
2021/06/04 01:53:40;;;;;;;3.75;2.50;;;18.90;47.40;;;;;;4996270;28;20046;-65
2021/06/04 01:56:11;;;;;;;2.42;2.13;;;18.90;47.30;;;;;;5014042;28;20056;-65
2021/06/04 01:58:53;;;;;;;5.05;2.47;;;18.90;47.40;;;;;;5015838;28;20500;-65
2021/06/04 02:01:31;;;;;;;3.75;2.53;;;18.80;47.60;;;;;;5003769;28;20073;-64
2021/06/04 02:03:58;;;;;;;3.20;2.10;;;18.80;47.80;;;;;;4996098;28;20029;-64
2021/06/04 02:06:26;;;;;;;5.13;2.90;;;18.80;47.50;;;;;;5006935;28;20550;-64
2021/06/04 02:08:58;;;;;;;4.78;2.97;;;18.80;48.00;;;;;;5015103;28;20096;-65
2021/06/04 02:11:30;;;;;;;3.40;2.60;;;18.70;48.30;;;;;;5010416;28;20089;-64
2021/06/04 02:13:59;;;;;;;3.15;2.40;;;18.70;48.20;;;;;;4995590;28;20097;-64
2021/06/04 02:16:45;;;;;;;4.20;3.40;;;18.70;48.20;;;;;;4995796;28;20023;-64
2021/06/04 02:19:18;;;;;;;4.75;2.78;;;18.60;48.80;;;;;;4996029;28;20101;-64
2021/06/04 02:21:54;;;;;;;3.80;2.58;;;18.60;48.40;;;;;;5001220;28;20022;-64
2021/06/04 02:24:31;;;;;;;9.40;2.92;;;18.50;48.60;;;;;;5015037;28;20033;-65
2021/06/04 02:27:11;;;;;;;3.72;2.55;;;18.50;48.80;;;;;;5015000;28;20022;-65
2021/06/04 02:29:46;;;;;;;7.38;2.90;;;18.50;48.80;;;;;;5014867;28;20030;-65
2021/06/04 02:32:23;;;;;;;7.32;3.28;;;18.50;49.40;;;;;;5014412;28;20030;-65
2021/06/04 02:35:04;;;;;;;6.53;3.10;;;18.40;49.40;;;;;;5014769;28;20530;-65
2021/06/04 02:37:37;;;;;;;6.53;2.92;;;18.40;49.60;;;;;;5014152;28;20029;-65
2021/06/04 02:40:18;;;;;;;6.20;3.28;;;18.40;49.80;;;;;;5014737;28;20072;-65
2021/06/04 02:42:56;;;;;;;6.15;3.20;;;18.40;49.70;;;;;;4999745;28;20396;-64
2021/06/04 02:45:27;;;;;;;6.75;3.22;;;18.40;50.10;;;;;;4993804;28;20045;-64
2021/06/04 02:48:01;;;;;;;5.13;2.70;;;18.30;49.90;;;;;;4994969;28;20054;-65
2021/06/04 02:50:32;;;;;;;;;;;18.30;50.30;;;;;;4996581;28;20031;-65
2021/06/04 02:53:19;;;;;;;3.55;2.60;;;18.40;49.10;;;;;;5013405;28;19920;-65
2021/06/04 02:56:22;;;;;;;4.78;2.75;;;18.30;50.00;;;;;;5014447;28;20022;-65
2021/06/04 02:59:13;;;;;;;3.72;2.95;;;18.30;50.40;;;;;;5014405;28;20030;-65
2021/06/04 03:01:43;;;;;;;4.97;3.25;;;18.30;50.20;;;;;;4994754;28;20065;-64
2021/06/04 03:04:11;;;;;;;4.15;2.53;;;18.30;50.20;;;;;;4994679;28;20073;-64
2021/06/04 03:06:44;;;;;;;8.20;2.67;;;18.30;50.30;;;;;;5008864;28;20021;-64
2021/06/04 03:09:14;;;;;;;4.35;2.95;;;18.20;50.40;;;;;;4996266;28;20568;-65
2021/06/04 03:11:43;;;;;;;3.90;3.13;;;18.20;50.40;;;;;;4996357;28;20030;-64
2021/06/04 03:14:11;;;;;;;7.07;3.25;;;18.20;50.50;;;;;;5014130;28;20080;-64
2021/06/04 03:16:37;;;;;;;3.85;2.90;;;18.20;50.60;;;;;;5013704;28;20022;-65
2021/06/04 03:19:09;;;;;;;4.50;3.22;;;18.20;50.60;;;;;;5008966;28;20080;-64
2021/06/04 03:21:41;;;;;;;5.90;2.90;;;18.10;50.90;;;;;;4994100;28;20053;-65
2021/06/04 03:24:11;;;;;;;5.55;3.35;;;18.10;50.80;;;;;;4997211;28;20032;-65
2021/06/04 03:26:38;;;;;;;11.35;3.50;;;18.10;51.40;;;;;;5013847;28;20026;-64
2021/06/04 03:29:06;;;;;;;4.35;2.90;;;18.10;51.50;;;;;;5013748;28;20363;-64
2021/06/04 03:31:34;;;;;;;7.18;3.53;;;18.20;51.30;;;;;;5013326;28;20049;-65
2021/06/04 03:34:01;;;;;;;10.00;3.65;;;18.20;52.10;;;;;;4993992;28;20554;-65
2021/06/04 03:36:30;;;;;;;12.13;3.33;;;18.20;52.10;;;;;;4994015;28;20026;-65
2021/06/04 03:38:56;;;;;;;5.05;2.72;;;18.20;52.40;;;;;;4994093;28;20026;-64
2021/06/04 03:41:28;;;;;;;4.50;3.33;;;18.20;52.00;;;;;;4993865;28;20027;-65
2021/06/04 03:43:53;;;;;;;5.25;3.58;;;18.20;52.70;;;;;;4994037;28;20065;-64
2021/06/04 03:46:19;;;;;;;3.53;2.88;;;18.30;52.30;;;;;;4993899;28;20034;-64
2021/06/04 03:48:45;;;;;;;4.72;3.33;;;18.30;52.30;;;;;;4994033;28;20093;-65
2021/06/04 03:51:16;;;;;;;4.57;3.30;;;18.30;52.00;;;;;;4993635;28;20052;-64
2021/06/04 03:53:42;;;;;;;9.25;3.45;;;18.40;51.90;;;;;;4993689;28;20042;-64
2021/06/04 03:56:11;;;;;;;8.13;3.08;;;18.50;52.10;;;;;;5003007;28;20034;-65
2021/06/04 03:58:37;;;;;;;4.75;2.47;;;18.50;51.80;;;;;;4992467;28;20046;-65
2021/06/04 04:01:16;;;;;;;9.23;3.50;;;18.60;51.60;;;;;;4992660;28;20085;-64
2021/06/04 04:03:43;;;;;;;5.68;3.03;;;18.70;51.60;;;;;;5013245;28;20022;-65
2021/06/04 04:06:09;;;;;;;2.92;2.60;;;18.70;51.40;;;;;;5012415;28;20050;-64
2021/06/04 04:08:35;;;;;;;4.68;2.72;;;18.80;51.20;;;;;;4993477;28;20030;-64
2021/06/04 04:11:01;;;;;;;5.50;3.22;;;18.90;51.30;;;;;;5012153;28;20018;-65
2021/06/04 04:13:28;;;;;;;6.82;2.85;;;19.00;51.40;;;;;;5011392;28;20420;-65
2021/06/04 04:15:55;;;;;;;6.72;3.30;;;19.00;51.20;;;;;;4996687;28;20114;-64
2021/06/04 04:18:21;;;;;;;6.78;3.22;;;19.10;51.50;;;;;;4993392;28;20398;-65
2021/06/04 04:20:53;;;;;;;5.65;3.03;;;19.20;51.30;;;;;;4993757;28;20101;-65
2021/06/04 04:23:25;;;;;;;6.70;2.88;;;19.30;51.10;;;;;;4993409;28;20026;-65
2021/06/04 04:25:51;;;;;;;10.32;4.18;;;19.40;50.90;;;;;;4997454;28;20380;-64
2021/06/04 04:28:22;;;;;;;9.32;3.90;;;19.50;51.00;;;;;;5013511;28;20037;-65
2021/06/04 04:30:48;;;;;;;8.68;3.58;;;19.50;50.70;;;;;;5015464;28;20113;-65
2021/06/04 04:33:14;;;;;;;6.13;3.55;;;19.60;51.20;;;;;;4998562;28;20110;-64
2021/06/04 04:35:41;;;;;;;8.55;3.58;;;19.70;50.50;;;;;;5002471;28;20112;-65
2021/06/04 04:38:09;;;;;;;10.20;3.25;;;19.70;50.40;;;;;;4999960;28;20024;-65
2021/06/04 04:40:38;;;;;;;10.25;3.67;;;19.80;50.30;;;;;;4997476;28;20018;-64
2021/06/04 04:43:05;;;;;;;6.28;3.33;;;19.90;50.30;;;;;;4997103;28;20443;-65
2021/06/04 04:45:32;;;;;;;10.00;4.75;;;19.90;50.10;;;;;;4996808;28;20042;-65
2021/06/04 04:47:59;;;;;;;13.40;5.60;;;20.00;50.10;;;;;;4999736;28;20030;-65
2021/06/04 04:50:26;;;;;;;6.80;4.28;;;20.00;49.90;;;;;;4997321;28;20424;-65
2021/06/04 04:52:54;;;;;;;12.48;4.80;;;20.00;49.90;;;;;;4996657;28;20036;-65
2021/06/04 04:55:23;;;;;;;10.98;5.82;;;20.10;49.70;;;;;;4996929;28;20400;-65
2021/06/04 04:57:48;;;;;;;20.15;7.30;;;20.10;49.60;;;;;;4996810;28;20026;-65
2021/06/04 05:00:18;;;;;;;19.63;7.15;;;20.20;49.70;;;;;;4998000;28;20090;-65
2021/06/04 05:02:44;;;;;;;23.23;7.20;;;20.20;49.70;;;;;;4998608;28;20026;-64
2021/06/04 05:05:11;;;;;;;15.25;6.28;;;20.30;49.70;;;;;;5014585;28;20034;-65
2021/06/04 05:07:37;;;;;;;20.73;7.32;;;20.30;49.70;;;;;;5003527;28;20023;-65
2021/06/04 05:10:05;;;;;;;26.17;6.75;;;20.40;49.80;;;;;;5008360;28;20032;-65
2021/06/04 05:12:31;;;;;;;15.88;5.90;;;20.50;49.80;;;;;;5015825;28;20029;-65
2021/06/04 05:14:57;;;;;;;12.85;5.63;;;20.50;49.80;;;;;;5016209;28;20507;-64
2021/06/04 05:17:22;;;;;;;10.10;4.70;;;20.60;49.70;;;;;;4997229;28;20029;-65
2021/06/04 05:19:48;;;;;;;17.55;5.53;;;20.70;49.40;;;;;;4998691;28;20026;-65
2021/06/04 05:22:15;;;;;;;9.85;4.50;;;20.80;49.20;;;;;;4996439;28;20030;-65
2021/06/04 05:24:41;;;;;;;7.53;4.38;;;20.90;49.10;;;;;;4999878;28;20044;-65
2021/06/04 05:27:07;;;;;;;12.27;5.43;;;21.00;49.00;;;;;;4996461;28;20014;-65
2021/06/04 05:29:33;;;;;;;22.52;5.80;;;21.00;48.40;;;;;;4994959;28;20068;-65
2021/06/04 05:32:03;;;;;;;13.32;5.80;;;21.10;48.10;;;;;;4996203;28;20026;-64
2021/06/04 05:34:29;;;;;;;9.30;5.28;;;21.20;47.60;;;;;;4998523;28;20022;-64
2021/06/04 05:36:57;;;;;;;12.95;4.80;;;21.30;47.50;;;;;;5014230;28;20037;-65
2021/06/04 05:39:24;;;;;;;18.13;5.25;;;21.40;47.50;;;;;;5015449;28;20026;-65
2021/06/04 05:41:59;;;;;;;11.90;5.15;;;21.40;47.50;;;;;;5015213;28;20120;-68
2021/06/04 05:44:28;;;;;;;21.95;6.78;;;21.50;46.90;;;;;;5015601;28;20498;-65
2021/06/04 05:46:57;;;;;;;15.82;5.50;;;21.60;46.70;;;;;;5015219;28;20464;-65
2021/06/04 05:49:23;;;;;;;13.98;5.40;;;21.70;46.70;;;;;;5009227;28;20530;-64
2021/06/04 05:51:51;;;;;;;8.05;4.38;;;21.70;46.70;;;;;;4995779;28;20034;-65
2021/06/04 05:54:17;;;;;;;10.20;4.47;;;21.80;46.70;;;;;;4995554;28;20496;-65
2021/06/04 05:56:44;;;;;;;13.40;5.05;;;21.90;46.40;;;;;;4999904;28;20026;-65
2021/06/04 05:59:12;;;;;;;12.85;4.55;;;21.90;46.10;;;;;;5013266;28;20037;-65
2021/06/04 06:01:39;;;;;;;11.93;4.63;;;21.90;45.80;;;;;;5013476;28;20029;-65
2021/06/04 06:04:06;;;;;;;8.50;4.00;;;22.00;45.80;;;;;;5014854;28;20079;-65
2021/06/04 06:06:33;;;;;;;10.77;4.68;;;22.00;45.60;;;;;;5015244;28;20030;-65
2021/06/04 06:08:58;;;;;;;11.68;4.22;;;22.10;45.50;;;;;;5013465;28;20037;-65
2021/06/04 06:11:26;;;;;;;6.72;3.90;;;22.20;45.50;;;;;;5013719;28;20403;-65
2021/06/04 06:13:54;;;;;;;10.85;4.45;;;22.30;45.40;;;;;;4995284;28;20149;-65
2021/06/04 06:16:20;;;;;;;12.40;5.82;;;22.30;45.40;;;;;;4996067;28;20113;-65
2021/06/04 06:18:45;;;;;;;15.02;5.72;;;22.40;45.50;;;;;;5009684;28;20425;-65
2021/06/04 06:21:12;;;;;;;19.67;5.32;;;22.50;45.40;;;;;;5005041;28;20027;-65
2021/06/04 06:23:39;;;;;;;18.15;5.10;;;22.60;45.10;;;;;;4995363;28;20046;-65
2021/06/04 06:26:10;;;;;;;13.30;6.20;;;22.70;45.20;;;;;;4995148;28;20480;-65
2021/06/04 06:28:38;;;;;;;17.13;7.07;;;22.80;44.60;;;;;;4995216;28;20123;-65
2021/06/04 06:31:09;;;;;;;15.88;6.25;;;22.90;44.60;;;;;;4996918;28;20054;-65
2021/06/04 06:33:35;;;;;;;12.48;5.80;;;22.90;44.40;;;;;;4994940;28;20022;-65
2021/06/04 06:36:08;;;;;;;26.55;7.22;;;23.10;44.50;;;;;;4998760;28;20026;-65
2021/06/04 06:38:35;;;;;;;13.45;7.07;;;23.20;43.90;;;;;;4996051;28;20376;-65
2021/06/04 06:41:05;;;;;;;19.95;6.07;;;23.30;43.50;;;;;;5012918;28;20026;-65
2021/06/04 06:43:35;;;;;;;16.58;6.90;;;23.40;43.50;;;;;;5022041;28;20033;-65
2021/06/04 06:46:02;;;;;;;17.08;8.90;;;23.50;43.10;;;;;;5019400;28;20026;-66
2021/06/04 06:48:28;;;;;;;13.30;7.47;;;23.70;42.50;;;;;;4994544;28;20015;-65
2021/06/04 06:50:54;;;;;;;12.93;7.47;;;23.70;42.50;;;;;;4994556;28;20033;-65
2021/06/04 06:53:24;;;;;;;14.27;8.20;;;23.80;42.30;;;;;;4994523;28;20050;-65
2021/06/04 06:55:51;;;;;;;16.35;8.57;;;23.90;42.00;;;;;;4994711;28;20027;-65
2021/06/04 06:58:18;;;;;;;13.45;8.48;;;24.00;41.70;;;;;;4994633;28;20053;-64
2021/06/04 07:00:47;;;;;;;17.27;8.52;;;24.10;41.80;;;;;;4998197;28;20022;-65
2021/06/04 07:03:17;;;;;;;11.65;7.43;;;24.20;41.30;;;;;;5004775;28;20017;-65
2021/06/04 07:05:43;;;;;;;11.07;6.75;;;24.30;40.90;;;;;;5013916;28;20026;-65
2021/06/04 07:08:10;;;;;;;14.00;8.52;;;24.40;40.60;;;;;;4996079;28;20026;-65
2021/06/04 07:10:36;;;;;;;9.10;6.85;;;24.50;40.30;;;;;;4994470;28;20030;-65
2021/06/04 07:13:05;;;;;;;13.65;6.60;;;24.60;40.10;;;;;;4994019;28;20105;-65
2021/06/04 07:15:32;;;;;;;15.65;6.15;;;24.70;39.40;;;;;;4994232;28;20026;-65
2021/06/04 07:17:59;;;;;;;9.40;5.55;;;24.80;39.30;;;;;;4994360;28;20026;-65
2021/06/04 07:20:30;;;;;;;12.88;5.50;;;24.80;38.80;;;;;;4994479;28;20073;-65
2021/06/04 07:22:57;;;;;;;8.98;5.70;;;24.90;38.70;;;;;;5001103;28;20018;-65
2021/06/04 07:25:26;;;;;;;8.77;5.15;;;25.00;38.10;;;;;;5008688;28;20073;-65
2021/06/04 07:27:52;;;;;;;13.18;5.60;;;25.00;38.00;;;;;;4993955;28;20054;-66
2021/06/04 07:30:26;;;;;;;7.82;4.97;;;25.10;37.90;;;;;;4998977;28;20034;-65
2021/06/04 07:32:52;;;;;;;;;;;25.20;37.00;;;;;;5013573;28;20057;-65
2021/06/04 07:35:21;;;;;;;9.05;4.53;;;25.20;38.80;;;;;;5013465;28;19905;-65
2021/06/04 07:37:47;;;;;;;6.75;4.53;;;25.30;37.80;;;;;;5016003;28;20452;-65
2021/06/04 07:40:19;;;;;;;6.75;4.65;;;25.40;37.80;;;;;;5013360;28;20053;-65
2021/06/04 07:42:46;;;;;;;10.48;5.53;;;25.50;37.40;;;;;;5004338;28;20025;-65
2021/06/04 07:45:12;;;;;;;8.93;4.65;;;25.50;37.00;;;;;;5002189;28;20077;-65
2021/06/04 07:47:38;;;;;;;9.48;5.18;;;25.50;37.40;;;;;;5013273;28;20034;-65
2021/06/04 07:50:09;;;;;;;7.63;5.10;;;25.60;36.90;;;;;;4999130;28;20041;-65
2021/06/04 07:52:35;;;;;;;8.68;4.57;;;25.60;37.00;;;;;;4993220;28;20026;-65
2021/06/04 07:55:02;;;;;;;7.68;4.90;;;25.80;36.90;;;;;;4993452;28;20386;-65
2021/06/04 07:57:29;;;;;;;7.38;4.97;;;25.80;37.10;;;;;;5011944;28;20137;-65
2021/06/04 07:59:54;;;;;;;9.10;5.30;;;25.90;36.90;;;;;;5014703;28;20026;-66
2021/06/04 08:02:20;;;;;;;8.20;5.10;;;25.90;36.80;;;;;;5033024;28;20052;-65
2021/06/04 08:04:46;;;;;;;6.57;3.95;;;26.00;36.60;;;;;;5023836;28;20030;-66
2021/06/04 08:07:12;;;;;;;5.35;4.13;;;26.10;37.00;;;;;;5013175;28;20030;-66
2021/06/04 08:09:41;;;;;;;8.68;4.45;;;26.10;36.50;;;;;;5013482;28;20026;-65
2021/06/04 08:12:10;;;;;;;10.90;5.00;;;26.20;36.90;;;;;;5012902;28;20034;-65
2021/06/04 08:14:37;;;;;;;6.68;4.00;;;26.30;36.60;;;;;;5015260;28;20026;-65
2021/06/04 08:17:03;;;;;;;9.38;4.25;;;26.40;36.80;;;;;;5009890;28;20022;-65
2021/06/04 08:19:32;;;;;;;9.50;5.60;;;26.40;36.00;;;;;;5017228;28;20102;-65
2021/06/04 08:22:00;;;;;;;15.82;5.32;;;26.50;36.30;;;;;;5029572;28;20025;-65
2021/06/04 08:24:29;;;;;;;8.02;4.85;;;26.50;36.40;;;;;;5028546;28;20113;-65
2021/06/04 08:26:56;;;;;;;19.15;5.25;;;26.50;36.40;;;;;;5030908;28;20096;-65
2021/06/04 08:29:23;;;;;;;6.60;4.00;;;26.60;36.60;;;;;;5011783;28;20119;-66
2021/06/04 08:31:50;;;;;;;9.43;5.05;;;26.60;36.80;;;;;;5012965;28;20022;-65
2021/06/04 08:34:16;;;;;;;11.48;5.40;;;26.60;36.20;;;;;;5012948;28;20546;-66
2021/06/04 08:36:43;;;;;;;11.02;5.57;;;26.70;36.30;;;;;;5012856;28;20026;-66
2021/06/04 08:39:17;;;;;;;7.85;4.28;;;26.70;36.00;;;;;;5012918;28;20022;-65
2021/06/04 08:41:59;;;;;;;10.00;4.70;;;26.80;36.50;;;;;;5012845;28;20026;-66
2021/06/04 08:44:30;;;;;;;7.68;4.00;;;26.80;36.10;;;;;;5030326;28;20025;-65
2021/06/04 08:47:20;;;;;;;8.95;4.18;;;26.90;36.20;;;;;;5031258;28;20026;-65
2021/06/04 08:50:11;;;;;;;11.05;4.18;;;26.90;35.90;;;;;;5020775;28;20061;-65
2021/06/04 08:52:42;;;;;;;11.10;4.85;;;27.00;36.10;;;;;;4995361;28;20069;-66
2021/06/04 08:55:32;;;;;;;6.07;4.07;;;27.00;36.00;;;;;;4993152;28;20450;-65
2021/06/04 08:58:14;;;;;;;7.63;4.43;;;27.00;35.40;;;;;;4997903;28;20053;-66
2021/06/04 09:00:44;;;;;;;9.93;4.90;;;27.10;35.60;;;;;;5001677;28;20040;-65
2021/06/04 09:03:23;;;;;;;6.97;4.28;;;27.10;35.70;;;;;;5016274;28;20109;-66
2021/06/04 09:05:57;;;;;;;7.25;3.78;;;27.10;35.80;;;;;;5011918;28;20053;-65
2021/06/04 09:08:29;;;;;;;7.15;4.28;;;27.20;35.90;;;;;;5006742;28;20026;-65
2021/06/04 09:11:05;;;;;;;6.63;4.50;;;27.20;35.50;;;;;;4999279;28;20029;-65
2021/06/04 09:13:34;;;;;;;8.60;4.13;;;27.20;35.40;;;;;;5006059;28;20392;-66
2021/06/04 09:16:48;;;;;;;8.35;3.70;;;27.30;35.70;;;;;;5012420;28;20050;-65
2021/06/04 09:19:27;;;;;;;5.85;3.45;;;27.30;35.70;;;;;;5004007;28;20046;-65
2021/06/04 09:21:53;;;;;;;3.88;3.35;;;27.40;35.10;;;;;;4996578;28;20068;-66
2021/06/04 09:24:41;;;;;;;5.57;3.80;;;27.50;34.80;;;;;;5013787;28;20029;-66
2021/06/04 09:27:34;;;;;;;17.35;4.80;;;27.50;34.70;;;;;;5015769;28;20088;-65
2021/06/04 09:30:34;;;;;;;11.10;4.85;;;27.60;34.80;;;;;;5014331;28;20081;-65
2021/06/04 09:33:18;;;;;;;6.93;4.18;;;27.70;34.60;;;;;;5012550;28;20133;-65
2021/06/04 09:36:13;;;;;;;;;;;27.80;34.70;;;;;;5018608;28;20088;-65
2021/06/04 09:38:44;;;;;;;11.15;6.13;;;28.00;35.30;;;;;;5015327;28;19912;-65
2021/06/04 09:41:34;;;;;;;7.97;5.03;;;28.00;33.20;;;;;;5019866;28;20025;-65
2021/06/04 09:44:06;;;;;;;6.38;4.38;;;28.10;33.90;;;;;;5024650;28;20022;-66
2021/06/04 09:46:38;;;;;;;13.45;4.70;;;28.20;33.20;;;;;;5020674;28;20022;-64
2021/06/04 09:49:04;;;;;;;6.90;5.40;;;28.30;33.60;;;;;;4999059;28;20018;-64
2021/06/04 09:51:33;;;;;;;6.45;4.40;;;28.30;32.90;;;;;;5022893;28;20035;-64
2021/06/04 09:54:25;;;;;;;8.30;3.70;;;28.40;33.00;;;;;;5005000;28;20548;-64
2021/06/04 09:57:11;;;;;;;4.63;3.78;;;28.40;32.20;;;;;;5007013;28;20400;-64
2021/06/04 09:59:37;;;;;;;7.72;3.92;;;28.50;31.60;;;;;;5010498;28;20357;-64
2021/06/04 10:02:24;;;;;;;8.02;4.13;;;28.60;30.50;;;;;;4992953;28;20022;-65
2021/06/04 10:04:50;;;;;;;4.65;3.10;;;28.60;30.70;;;;;;4994955;28;20120;-64
2021/06/04 10:07:23;;;;;;;5.80;3.75;;;28.70;30.80;;;;;;4994591;28;20436;-64
2021/06/04 10:09:49;;;;;;;5.28;3.70;;;28.80;30.20;;;;;;4994422;28;20034;-64
2021/06/04 10:12:15;;;;;;;7.00;3.63;;;28.80;30.00;;;;;;4994352;28;20122;-64
2021/06/04 10:20:35;;;;;;;7.25;2.63;;;29.00;27.40;;;;;;4998522;28;20027;-64
2021/06/04 10:23:17;;;;;;;4.13;1.95;;;29.00;27.10;;;;;;4993782;28;20492;-64
2021/06/04 10:25:54;;;;;;;3.28;1.88;;;29.00;25.90;;;;;;4996174;28;20388;-64
2021/06/04 10:28:31;;;;;;;4.55;1.90;;;29.00;25.90;;;;;;4994400;28;20026;-64
2021/06/04 10:31:17;;;;;;;5.53;2.42;;;29.10;26.00;;;;;;4994268;28;20480;-64
2021/06/04 10:33:53;;;;;;;6.70;2.30;;;29.20;25.90;;;;;;4994036;28;20031;-64
2021/06/04 10:36:21;;;;;;;6.55;2.85;;;29.20;25.70;;;;;;4994013;28;20053;-64
2021/06/04 10:38:53;;;;;;;3.50;2.35;;;29.30;25.90;;;;;;4994082;28;20445;-64
2021/06/04 10:41:44;;;;;;;5.55;2.20;;;29.30;25.70;;;;;;4993927;28;20022;-64
2021/06/04 10:44:32;;;;;;;5.43;2.20;;;29.40;26.60;;;;;;4994278;28;20484;-63
2021/06/04 10:47:07;;;;;;;2.88;2.13;;;29.60;26.00;;;;;;4993958;28;20034;-62
2021/06/04 10:49:50;;;;;;;2.40;1.80;;;29.70;26.30;;;;;;5001599;28;20506;-63
2021/06/04 10:52:47;;;;;;;3.83;2.42;;;29.80;26.30;;;;;;5013577;28;20483;-63
2021/06/04 10:55:19;;;;;;;4.70;2.20;;;29.90;25.40;;;;;;5012634;28;20040;-62
2021/06/04 10:57:47;;;;;;;3.38;2.10;;;30.10;24.50;;;;;;5012057;28;20160;-63
2021/06/04 11:00:24;;;;;;;5.40;1.77;;;30.20;24.40;;;;;;5007101;28;20029;-63
2021/06/04 11:03:10;;;;;;;4.68;1.65;;;30.30;24.00;;;;;;4993462;28;20031;-63
2021/06/04 11:05:56;;;;;;;1.55;1.33;;;30.40;24.90;;;;;;5001931;28;20029;-63
2021/06/04 11:08:31;;;;;;;1.35;1.25;;;30.50;23.50;;;;;;5012345;28;20026;-63
2021/06/04 11:11:07;;;;;;;1.80;1.30;;;30.60;23.30;;;;;;5012148;28;20041;-63
2021/06/04 11:13:57;;;;;;;4.55;1.67;;;30.70;22.30;;;;;;5012317;28;20034;-63
2021/06/04 11:16:47;;;;;;;3.90;1.75;;;30.80;22.10;;;;;;5011606;28;20030;-65
2021/06/04 11:19:50;;;;;;;3.03;1.50;;;30.90;21.90;;;;;;5007118;28;20026;-63
2021/06/04 11:22:32;;;;;;;3.15;2.00;;;30.90;22.50;;;;;;4993084;28;20019;-63
2021/06/04 11:25:27;;;;;;;4.10;2.78;;;30.90;21.10;;;;;;4993331;28;20023;-63
2021/06/04 11:28:21;;;;;;;6.22;2.72;;;31.00;22.00;;;;;;5004389;28;20120;-63
2021/06/04 11:30:50;;;;;;;3.58;2.03;;;31.00;22.50;;;;;;5012813;28;20045;-63
2021/06/04 11:33:23;;;;;;;3.78;2.00;;;31.10;21.90;;;;;;5011984;28;20037;-63
2021/06/04 11:36:16;;;;;;;3.95;2.80;;;31.10;21.60;;;;;;5011544;28;20033;-63
2021/06/04 11:38:59;;;;;;;2.20;1.50;;;31.10;22.00;;;;;;5012721;28;20100;-63
2021/06/04 11:41:34;;;;;;;1.33;1.13;;;31.20;20.30;;;;;;5010727;28;20411;-63
2021/06/04 11:44:11;;;;;;;3.80;2.47;;;31.20;19.50;;;;;;4993072;28;20041;-63
2021/06/04 11:46:37;;;;;;;5.35;2.25;;;31.20;20.00;;;;;;4997513;28;20072;-63
2021/06/04 11:49:22;;;;;;;3.67;1.92;;;31.30;20.60;;;;;;4992992;28;20471;-63
2021/06/04 11:51:52;;;;;;;4.40;2.33;;;31.30;20.90;;;;;;4993550;28;20440;-63
2021/06/04 11:54:27;;;;;;;2.42;1.65;;;31.30;21.00;;;;;;4996195;28;20054;-63
2021/06/04 11:57:00;;;;;;;4.18;2.10;;;31.30;20.00;;;;;;5012155;28;20105;-64
2021/06/04 11:59:46;;;;;;;3.03;1.85;;;31.40;19.60;;;;;;5007517;28;20056;-64
2021/06/04 12:02:41;;;;;;;5.03;3.00;;;31.40;19.40;;;;;;5012961;28;20499;-64
2021/06/04 12:05:09;;;;;;;3.60;2.20;;;31.40;20.40;;;;;;5016769;28;20125;-63
2021/06/04 12:07:37;;;;;;;5.55;2.20;;;31.40;20.30;;;;;;5013092;28;20671;-63
2021/06/04 12:10:04;;;;;;;6.07;2.55;;;31.40;19.20;;;;;;5012767;28;20369;-63
2021/06/04 12:12:30;;;;;;;2.80;1.77;;;31.30;20.10;;;;;;5012906;28;20443;-64
2021/06/04 12:14:56;;;;;;;3.70;2.00;;;31.30;19.60;;;;;;5012971;28;20022;-63
2021/06/04 12:17:35;;;;;;;5.18;2.53;;;31.30;19.50;;;;;;5011739;28;20538;-63
2021/06/04 12:20:38;;;;;;;4.35;3.00;;;31.20;19.90;;;;;;5011186;28;20025;-63
2021/06/04 12:23:28;;;;;;;3.63;2.15;;;31.30;20.20;;;;;;5012882;28;20046;-63
2021/06/04 12:25:54;;;;;;;1.65;1.00;;;31.20;18.60;;;;;;5012986;28;20041;-64
2021/06/04 12:28:20;;;;;;;2.40;1.73;;;31.20;16.30;;;;;;5013004;28;20029;-64
2021/06/04 12:30:51;;;;;;;3.00;2.13;;;31.20;17.40;;;;;;5011722;28;20034;-64
2021/06/04 12:33:47;;;;;;;6.57;2.17;;;31.20;18.00;;;;;;5012750;28;20104;-63
2021/06/04 12:36:33;;;;;;;3.13;1.70;;;31.20;18.10;;;;;;5008287;28;20057;-63
2021/06/04 12:39:20;;;;;;;1.23;0.95;;;31.20;18.30;;;;;;5008323;28;20034;-64
2021/06/04 12:42:00;;;;;;;2.65;1.42;;;31.20;17.00;;;;;;5007063;28;20039;-63
2021/06/04 12:44:26;;;;;;;2.35;1.60;;;31.20;17.00;;;;;;5012898;28;20022;-64
2021/06/04 12:46:52;;;;;;;3.90;1.83;;;31.20;16.60;;;;;;5000352;28;20110;-63
2021/06/04 12:49:19;;;;;;;2.88;1.90;;;31.20;16.60;;;;;;4998463;28;20105;-64
2021/06/04 12:51:47;;;;;;;2.22;1.75;;;31.20;16.50;;;;;;5000349;28;20034;-63
2021/06/04 12:54:29;;;;;;;2.83;2.25;;;31.20;16.90;;;;;;5002613;28;20103;-63
2021/06/04 12:56:59;;;;;;;3.42;1.75;;;31.20;17.40;;;;;;5020226;28;20022;-63
2021/06/04 12:59:31;;;;;;;5.32;2.55;;;31.20;19.10;;;;;;5012725;28;20476;-65
2021/06/04 13:02:07;;;;;;;3.88;2.45;;;31.30;20.20;;;;;;5016194;28;20361;-63
2021/06/04 13:04:41;;;;;;;3.45;2.55;;;31.40;20.60;;;;;;5007021;28;20030;-63
2021/06/04 13:07:28;;;;;;;5.00;3.00;;;31.40;21.20;;;;;;4996831;28;20022;-64
2021/06/04 13:10:20;;;;;;;5.13;2.03;;;31.50;21.10;;;;;;4996674;28;20037;-63
2021/06/04 13:12:46;;;;;;;2.00;1.60;;;31.60;20.60;;;;;;4996563;28;20026;-64
2021/06/04 13:15:20;;;;;;;6.32;2.97;;;31.60;20.40;;;;;;4996368;28;20033;-64
2021/06/04 13:18:05;;;;;;;3.25;2.05;;;31.60;21.40;;;;;;4996564;28;20034;-63
2021/06/04 13:20:32;;;;;;;3.40;2.45;;;31.70;20.70;;;;;;4996513;28;20042;-63